20NY weather

Stafford Airport
Stafford, New York, United States

Public forecast

Using degrees Fahrenheit for public forecast. Weather courtesy of forecast.io.

Closest aviation weather report (METAR) to Stafford Airport

Closest report is Greater Rochester International Airport, 17.6 nm (32.5 km) ENE. Retrieved 2019/12/13 03:54 UTC (57 minutes ago):

KROC 130354Z 20008KT 10SM BKN200 00/M11 A3033 RMK AO2 SLP281 T00001111

Closest aviation forecast (TAF) to Stafford Airport

Closest forecast is Greater Rochester International Airport, 17.6 nm (32.5 km) ENE. Retrieved 2019-12-13 00:36 UTC (4 hours ago):

TAF KROC 122334Z 1300/1324 15007KT P6SM BKN200 FM130300 18008KT P6SM BKN250 WS015/20040KT FM130400 18010G16KT P6SM SCT250 WS015/20040KT FM131200 18013G20KT P6SM FEW250 FM132000 17009KT P6SM BKN100